createdAt,value
2022-08-18T00:01:14.806Z,57.05
2022-08-18T00:03:56.431Z,56.93
2022-08-18T00:06:30.015Z,57.26
2022-08-18T00:08:58.533Z,57.63
2022-08-18T00:11:25.325Z,57.93
2022-08-18T00:13:52.078Z,57.97
2022-08-18T00:16:18.568Z,58.28
2022-08-18T00:18:45.116Z,60.15
2022-08-18T00:21:11.674Z,60.38
2022-08-18T00:23:38.724Z,59.06
2022-08-18T00:26:05.498Z,58.13
2022-08-18T00:28:32.011Z,58.66
2022-08-18T00:30:58.495Z,59.21
2022-08-18T00:33:25.517Z,58.00
2022-08-18T00:35:52.111Z,58.94
2022-08-18T00:38:24.846Z,58.96
2022-08-18T00:40:55.360Z,58.84
2022-08-18T00:43:29.804Z,58.48
2022-08-18T00:45:56.463Z,57.57
2022-08-18T00:48:24.282Z,57.98
2022-08-18T00:51:03.382Z,57.71
2022-08-18T00:53:35.981Z,58.60
2022-08-18T00:56:08.741Z,58.60
2022-08-18T00:58:42.473Z,58.37
2022-08-18T01:01:09.959Z,57.59
2022-08-18T01:03:40.010Z,57.78
2022-08-18T01:06:12.485Z,58.55
2022-08-18T01:08:41.062Z,58.76
2022-08-18T01:11:10.468Z,58.53
2022-08-18T01:13:38.723Z,58.64
2022-08-18T01:16:25.719Z,57.68
2022-08-18T01:19:11.252Z,57.56
2022-08-18T01:21:50.878Z,57.21
2022-08-18T01:24:22.391Z,57.19
2022-08-18T01:26:51.873Z,58.45
2022-08-18T01:29:19.617Z,58.21
2022-08-18T01:31:56.088Z,58.50
2022-08-18T01:34:25.475Z,58.12
2022-08-18T01:36:52.509Z,57.95
2022-08-18T01:40:59.788Z,58.27
2022-08-18T01:42:06.987Z,58.49
2022-08-18T01:44:34.005Z,58.27
2022-08-18T01:47:00.695Z,58.25
2022-08-18T01:49:28.789Z,57.63
2022-08-18T01:51:55.721Z,57.98
2022-08-18T01:54:22.348Z,58.45
2022-08-18T01:56:49.411Z,58.29
2022-08-18T01:59:16.155Z,58.13
2022-08-18T02:01:50.415Z,57.85
2022-08-18T02:04:34.927Z,57.34
2022-08-18T02:07:09.238Z,57.43
2022-08-18T02:09:37.904Z,57.81
2022-08-18T02:12:05.897Z,58.13
2022-08-18T02:14:33.113Z,58.25
2022-08-18T02:17:02.687Z,58.34
2022-08-18T02:19:38.598Z,58.14
2022-08-18T02:22:06.547Z,57.90
2022-08-18T02:24:33.389Z,57.88
2022-08-18T02:26:59.904Z,57.35
2022-08-18T02:29:26.589Z,57.24
2022-08-18T02:31:53.191Z,58.02
2022-08-18T02:34:19.727Z,58.95
2022-08-18T02:36:46.376Z,58.46
2022-08-18T02:39:13.261Z,58.94
2022-08-18T02:41:40.068Z,59.51
2022-08-18T02:44:08.499Z,59.45
2022-08-18T02:46:35.440Z,58.72
2022-08-18T02:49:02.614Z,58.49
2022-08-18T02:51:29.122Z,58.62
2022-08-18T02:53:58.997Z,59.21
2022-08-18T02:56:39.981Z,59.19
2022-08-18T02:59:11.125Z,58.71
2022-08-18T03:01:40.947Z,58.34
2022-08-18T03:04:09.720Z,59.20
2022-08-18T03:06:38.004Z,59.03
2022-08-18T03:09:06.247Z,58.87
2022-08-18T03:11:32.815Z,58.62
2022-08-18T03:14:00.468Z,58.62
2022-08-18T03:16:27.686Z,59.55
2022-08-18T03:18:54.429Z,60.66
2022-08-18T03:21:24.943Z,60.71
2022-08-18T03:24:01.207Z,59.53
2022-08-18T03:26:30.321Z,60.17
2022-08-18T03:28:58.383Z,58.18
2022-08-18T03:31:27.955Z,59.64
2022-08-18T03:33:57.165Z,59.23
2022-08-18T03:36:29.465Z,58.36
2022-08-18T03:38:56.951Z,58.30
2022-08-18T03:41:57.495Z,57.68
2022-08-18T03:44:14.826Z,58.43
2022-08-18T03:46:43.044Z,57.68
2022-08-18T03:49:09.742Z,58.05
2022-08-18T03:51:37.016Z,58.26
2022-08-18T03:54:04.669Z,57.90
2022-08-18T03:56:38.231Z,58.19
2022-08-18T03:59:15.409Z,58.75
2022-08-18T04:01:42.735Z,57.91
2022-08-18T04:04:11.999Z,58.21
2022-08-18T04:06:51.235Z,57.67
2022-08-18T04:09:22.386Z,58.00
2022-08-18T04:11:49.622Z,57.43
2022-08-18T04:14:21.661Z,57.07
2022-08-18T04:16:49.193Z,56.25
2022-08-18T04:19:22.737Z,56.26
2022-08-18T04:21:54.872Z,55.87
2022-08-18T04:24:21.457Z,57.20
2022-08-18T04:26:49.041Z,58.10
2022-08-18T04:29:18.155Z,57.07
2022-08-18T04:31:45.393Z,56.98
2022-08-18T04:34:12.449Z,56.35
2022-08-18T04:36:39.833Z,57.06
2022-08-18T04:39:07.866Z,57.52
2022-08-18T04:41:35.415Z,57.36
2022-08-18T04:44:04.479Z,59.28
2022-08-18T04:46:36.127Z,58.11
2022-08-18T04:49:03.805Z,59.61
2022-08-18T04:52:34.400Z,60.56
2022-08-18T04:54:17.422Z,62.46
2022-08-18T04:56:43.910Z,62.74
2022-08-18T04:59:12.705Z,62.14
2022-08-18T05:01:45.710Z,63.49
2022-08-18T05:04:14.247Z,62.60
2022-08-18T05:06:43.364Z,63.73
2022-08-18T05:09:11.499Z,63.63
2022-08-18T05:11:38.962Z,65.34
2022-08-18T05:14:07.629Z,63.50
2022-08-18T05:16:36.552Z,65.13
2022-08-18T05:19:22.229Z,63.78
2022-08-18T05:21:59.525Z,62.97
2022-08-18T05:24:33.535Z,63.02
2022-08-18T05:27:03.598Z,63.79
2022-08-18T05:29:37.754Z,63.40
2022-08-18T05:32:12.062Z,63.28
2022-08-18T05:35:00.557Z,61.35
2022-08-18T05:37:35.568Z,60.61
2022-08-18T05:40:10.360Z,60.80
2022-08-18T05:42:39.445Z,58.82
2022-08-18T05:45:12.356Z,58.59
2022-08-18T05:47:39.219Z,59.90
2022-08-18T05:50:09.440Z,59.67
2022-08-18T05:52:57.437Z,59.98
2022-08-18T05:55:50.172Z,59.73
2022-08-18T05:58:44.571Z,60.13
2022-08-18T06:01:18.867Z,58.40
2022-08-18T06:03:49.886Z,60.30
2022-08-18T06:06:24.245Z,60.96
2022-08-18T06:09:14.084Z,62.75
2022-08-18T06:11:41.504Z,61.37
2022-08-18T06:14:08.220Z,60.14
2022-08-18T06:16:49.948Z,60.61
2022-08-18T06:19:31.687Z,59.94
2022-08-18T06:22:10.328Z,62.45
2022-08-18T06:25:01.673Z,63.51
2022-08-18T06:27:47.558Z,63.21
2022-08-18T06:30:19.945Z,64.24
2022-08-18T06:33:08.767Z,62.73
2022-08-18T06:35:46.520Z,62.75
2022-08-18T06:38:40.535Z,61.85
2022-08-18T06:41:42.013Z,62.20
2022-08-18T06:44:03.527Z,60.64
2022-08-18T06:46:44.020Z,65.18
2022-08-18T06:49:29.429Z,65.26
2022-08-18T06:51:55.963Z,63.65
2022-08-18T06:54:22.600Z,63.00
2022-08-18T06:56:51.723Z,63.05
2022-08-18T06:59:18.503Z,62.62
2022-08-18T07:01:47.580Z,62.06
2022-08-18T07:04:38.271Z,61.58
2022-08-18T07:07:20.850Z,60.97
2022-08-18T07:09:57.716Z,59.78
2022-08-18T07:12:32.571Z,61.08
2022-08-18T07:15:01.654Z,60.17
2022-08-18T07:17:43.507Z,62.85
2022-08-18T07:20:21.476Z,62.62
2022-08-18T07:23:08.256Z,62.30
2022-08-18T07:25:41.300Z,61.98
2022-08-18T07:28:07.963Z,61.96
2022-08-18T07:30:36.877Z,61.84
2022-08-18T07:33:19.830Z,61.64
2022-08-18T07:35:51.736Z,61.44
2022-08-18T07:38:43.176Z,62.38
2022-08-18T07:41:32.197Z,60.01
2022-08-18T07:43:59.414Z,59.33
2022-08-18T07:46:35.576Z,59.39
2022-08-18T07:49:05.419Z,58.24
2022-08-18T07:51:56.976Z,59.24
2022-08-18T07:54:49.304Z,58.64
2022-08-18T07:57:21.984Z,57.94
2022-08-18T08:00:01.747Z,56.91
2022-08-18T08:02:50.131Z,58.07
2022-08-18T08:05:33.033Z,55.59
2022-08-18T08:08:30.839Z,55.33
2022-08-18T08:11:07.225Z,55.48
2022-08-18T08:13:56.152Z,55.78
2022-08-18T08:16:36.696Z,54.67
2022-08-18T08:19:59.586Z,56.69
2022-08-18T08:22:37.445Z,57.10
2022-08-18T08:25:28.643Z,55.73
2022-08-18T08:28:29.498Z,56.69
2022-08-18T08:31:33.010Z,55.79
2022-08-18T08:34:06.299Z,55.57
2022-08-18T08:36:39.802Z,54.82
2022-08-18T08:39:15.527Z,54.83
2022-08-18T08:41:53.343Z,54.94
2022-08-18T08:45:00.051Z,56.70
2022-08-18T08:47:29.889Z,57.03
2022-08-18T08:50:08.523Z,55.45
2022-08-18T08:52:42.370Z,54.57
2022-08-18T08:55:18.899Z,54.66
2022-08-18T08:58:08.565Z,54.96
2022-08-18T09:00:35.960Z,54.78
2022-08-18T09:03:30.355Z,55.21
2022-08-18T09:06:20.085Z,54.73
2022-08-18T09:08:46.556Z,54.49
2022-08-18T09:11:21.109Z,52.82
2022-08-18T09:14:25.008Z,55.03
2022-08-18T09:16:59.361Z,56.90
2022-08-18T09:19:31.949Z,55.82
2022-08-18T09:21:58.632Z,56.55
2022-08-18T09:24:41.791Z,55.30
2022-08-18T09:27:48.646Z,57.18
2022-08-18T09:31:08.654Z,55.41
2022-08-18T09:33:40.377Z,54.16
2022-08-18T09:36:25.613Z,51.91
2022-08-18T09:39:18.500Z,52.11
2022-08-18T09:41:59.517Z,54.51
2022-08-18T09:47:30.423Z,53.84
2022-08-18T09:50:01.934Z,52.15
2022-08-18T09:50:37.149Z,55.00
2022-08-18T09:52:33.460Z,50.50
2022-08-18T09:55:26.856Z,49.80
2022-08-18T09:58:22.958Z,48.62
2022-08-18T10:01:19.715Z,48.07
2022-08-18T10:04:14.370Z,49.89
2022-08-18T10:06:42.972Z,49.15
2022-08-18T10:09:44.067Z,49.68
2022-08-18T10:12:23.658Z,49.53
2022-08-18T10:15:12.552Z,48.45
2022-08-18T10:17:54.485Z,49.63
2022-08-18T10:20:42.606Z,50.26
2022-08-18T10:23:09.642Z,49.55
2022-08-18T10:25:41.072Z,50.29
2022-08-18T10:28:50.001Z,47.59
2022-08-18T10:31:18.578Z,47.48
2022-08-18T10:34:16.061Z,47.68
2022-08-18T10:36:44.057Z,46.58
2022-08-18T10:39:14.072Z,45.64
2022-08-18T10:42:07.213Z,44.94
2022-08-18T10:44:45.863Z,46.09
2022-08-18T10:47:25.131Z,45.98
2022-08-18T10:50:05.087Z,45.40
2022-08-18T10:52:54.444Z,46.05
2022-08-18T10:55:49.116Z,45.33
2022-08-18T10:58:35.395Z,45.79
2022-08-18T11:01:14.902Z,48.22
2022-08-18T11:04:32.849Z,47.09
2022-08-18T11:07:30.671Z,46.35
2022-08-18T11:10:27.781Z,46.60
2022-08-18T11:13:09.824Z,45.00
2022-08-18T11:15:52.336Z,43.61
2022-08-18T11:18:42.796Z,42.44
2022-08-18T11:21:42.644Z,41.46
2022-08-18T11:24:16.106Z,40.33
2022-08-18T11:26:52.555Z,38.94
2022-08-18T11:29:40.897Z,40.01
2022-08-18T11:35:24.509Z,36.81
2022-08-18T11:37:56.285Z,38.10
2022-08-18T11:41:08.596Z,36.93
2022-08-18T11:43:40.936Z,36.36
2022-08-18T11:46:39.021Z,34.15
2022-08-18T11:49:33.597Z,33.26
2022-08-18T11:55:23.888Z,30.05
2022-08-18T11:57:58.668Z,25.97
2022-08-18T12:01:02.907Z,25.47
2022-08-18T12:03:44.799Z,26.65
2022-08-18T12:06:19.293Z,32.36
2022-08-18T12:08:57.277Z,32.30
2022-08-18T12:11:52.557Z,33.79
2022-08-18T12:14:30.612Z,33.91
2022-08-18T12:17:00.093Z,33.81
2022-08-18T12:19:30.651Z,33.45
2022-08-18T12:22:00.266Z,34.33
2022-08-18T12:27:22.509Z,33.89
2022-08-18T12:29:53.581Z,34.11
2022-08-18T12:32:55.991Z,34.48
2022-08-18T12:35:11.638Z,34.69
2022-08-18T12:40:29.438Z,35.27
2022-08-18T12:42:56.864Z,35.70
2022-08-18T12:45:26.075Z,36.86
2022-08-18T12:47:54.362Z,38.67
2022-08-18T12:50:20.924Z,38.84
2022-08-18T12:52:58.687Z,37.63
2022-08-18T12:55:43.458Z,37.39
2022-08-18T12:58:11.284Z,37.09
2022-08-18T13:00:39.460Z,37.94
2022-08-18T13:03:07.293Z,37.88
2022-08-18T13:05:37.329Z,37.61
2022-08-18T13:08:05.579Z,37.99
2022-08-18T13:10:42.953Z,40.13
2022-08-18T13:13:14.912Z,40.06
2022-08-18T13:15:55.264Z,40.01
2022-08-18T13:18:28.708Z,38.65
2022-08-18T13:20:58.850Z,39.21
2022-08-18T13:23:27.115Z,39.98
2022-08-18T13:26:01.283Z,39.34
2022-08-18T13:28:30.911Z,39.48
2022-08-18T13:31:05.907Z,40.56
2022-08-18T13:33:35.329Z,38.89
2022-08-18T13:36:20.462Z,39.33
2022-08-18T13:38:52.243Z,37.41
2022-08-18T13:41:23.323Z,37.25
2022-08-18T13:43:51.604Z,37.15
2022-08-18T13:46:24.320Z,37.54
2022-08-18T13:49:03.292Z,39.47
2022-08-18T13:51:30.271Z,38.44
2022-08-18T13:54:17.732Z,40.27
2022-08-18T13:56:51.812Z,39.07
2022-08-18T13:59:21.549Z,37.68
2022-08-18T14:01:51.954Z,36.65
2022-08-18T14:04:20.445Z,36.30
2022-08-18T14:06:56.277Z,34.32
2022-08-18T14:09:27.941Z,36.19
2022-08-18T14:12:28.187Z,35.19
2022-08-18T14:14:57.769Z,35.92
2022-08-18T14:17:25.434Z,35.38
2022-08-18T14:20:15.522Z,35.49
2022-08-18T14:23:12.044Z,35.34
2022-08-18T14:25:57.628Z,36.63
2022-08-18T14:28:27.246Z,37.74
2022-08-18T14:30:54.395Z,39.05
2022-08-18T14:33:34.061Z,39.08
2022-08-18T14:36:10.076Z,38.30
2022-08-18T14:38:38.340Z,38.66
2022-08-18T14:41:07.141Z,39.23
2022-08-18T14:44:11.344Z,39.18
2022-08-18T14:46:23.425Z,39.63
2022-08-18T14:48:57.094Z,39.15
2022-08-18T14:51:27.021Z,38.76
2022-08-18T14:53:54.455Z,38.14
2022-08-18T14:56:22.461Z,37.67
2022-08-18T14:58:51.082Z,37.96
2022-08-18T15:01:18.290Z,36.39
2022-08-18T15:03:44.927Z,35.56
2022-08-18T15:06:17.008Z,35.03
2022-08-18T15:08:49.766Z,34.85
2022-08-18T15:11:17.149Z,34.38
2022-08-18T15:13:45.283Z,34.32
2022-08-18T15:16:13.799Z,34.63
2022-08-18T15:18:42.134Z,35.68
2022-08-18T15:21:35.530Z,37.00
2022-08-18T15:24:23.644Z,38.96
2022-08-18T15:26:56.721Z,38.86
2022-08-18T15:29:30.368Z,38.06
2022-08-18T15:32:05.156Z,37.33
2022-08-18T15:34:33.083Z,39.91
2022-08-18T15:37:14.081Z,39.47
2022-08-18T15:39:41.507Z,38.11
2022-08-18T15:42:12.952Z,37.80
2022-08-18T15:44:40.221Z,36.01
2022-08-18T15:47:11.399Z,36.58
2022-08-18T15:49:38.572Z,35.82
2022-08-18T15:52:05.135Z,35.94
2022-08-18T15:54:31.681Z,35.32
2022-08-18T15:56:58.834Z,35.58
2022-08-18T15:59:34.284Z,34.47
2022-08-18T16:02:11.455Z,34.33
2022-08-18T16:04:40.993Z,34.87
2022-08-18T16:07:07.837Z,34.86
2022-08-18T16:09:36.869Z,35.08
2022-08-18T16:12:04.098Z,35.14
2022-08-18T16:14:31.531Z,34.95
2022-08-18T16:16:58.017Z,35.11
2022-08-18T16:19:25.695Z,35.00
2022-08-18T16:21:55.403Z,34.16
2022-08-18T16:24:23.585Z,34.11
2022-08-18T16:26:51.909Z,34.14
2022-08-18T16:29:19.341Z,33.81
2022-08-18T16:31:46.453Z,33.80
2022-08-18T16:34:13.000Z,33.39
2022-08-18T16:36:39.560Z,35.50
2022-08-18T16:39:06.421Z,35.91
2022-08-18T16:41:33.527Z,35.76
2022-08-18T16:44:00.567Z,35.96
2022-08-18T16:46:28.001Z,35.83
2022-08-18T16:48:56.271Z,36.15
2022-08-18T16:51:25.343Z,35.93
2022-08-18T16:53:53.436Z,36.57
2022-08-18T16:56:26.596Z,36.90
2022-08-18T16:59:12.225Z,37.46
2022-08-18T17:01:57.661Z,37.10
2022-08-18T17:04:28.698Z,37.21
2022-08-18T17:06:56.333Z,37.67
2022-08-18T17:09:23.217Z,37.32
2022-08-18T17:11:51.947Z,37.06
2022-08-18T17:14:24.522Z,38.02
2022-08-18T17:16:54.305Z,38.34
2022-08-18T17:19:23.189Z,37.97
2022-08-18T17:21:49.706Z,37.94
2022-08-18T17:24:28.544Z,38.76
2022-08-18T17:27:26.931Z,39.26
2022-08-18T17:30:07.600Z,38.19
2022-08-18T17:32:51.859Z,37.70
2022-08-18T17:35:35.561Z,39.43
2022-08-18T17:38:22.587Z,38.91
2022-08-18T17:40:52.941Z,39.71
2022-08-18T17:43:25.057Z,39.87
2022-08-18T17:46:01.590Z,40.32
2022-08-18T17:48:32.330Z,39.94
2022-08-18T17:51:22.355Z,40.00
2022-08-18T17:53:49.282Z,39.68
2022-08-18T17:56:21.402Z,40.50
2022-08-18T17:58:56.386Z,42.11
2022-08-18T18:01:25.832Z,43.23
2022-08-18T18:03:53.707Z,44.04
2022-08-18T18:06:35.146Z,43.94
2022-08-18T18:09:07.222Z,43.72
2022-08-18T18:11:43.519Z,44.48
2022-08-18T18:14:47.406Z,44.62
2022-08-18T18:17:20.073Z,45.44
2022-08-18T18:19:51.013Z,45.11
2022-08-18T18:22:24.206Z,45.45
2022-08-18T18:24:57.364Z,45.36
2022-08-18T18:27:38.342Z,44.34
2022-08-18T18:30:08.387Z,43.78
2022-08-18T18:33:00.248Z,43.04
2022-08-18T18:35:27.858Z,43.70
2022-08-18T18:37:57.116Z,43.35
2022-08-18T18:40:29.636Z,43.28
2022-08-18T18:42:58.035Z,43.81
2022-08-18T18:45:29.013Z,44.25
2022-08-18T18:48:06.370Z,44.34
2022-08-18T18:50:53.087Z,44.25
2022-08-18T18:53:41.548Z,44.79
2022-08-18T18:56:34.502Z,44.78
2022-08-18T18:59:40.724Z,45.35
2022-08-18T19:02:57.709Z,45.59
2022-08-18T19:05:39.225Z,45.89
2022-08-18T19:08:07.192Z,46.27
2022-08-18T19:10:44.070Z,46.29
2022-08-18T19:13:32.263Z,45.96
2022-08-18T19:16:24.281Z,45.81
2022-08-18T19:19:37.325Z,45.77
2022-08-18T19:22:04.022Z,46.09
2022-08-18T19:24:35.216Z,45.79
2022-08-18T19:27:04.859Z,45.96
2022-08-18T19:29:38.598Z,46.28
2022-08-18T19:32:15.928Z,46.45
2022-08-18T19:34:51.324Z,46.53
2022-08-18T19:37:27.555Z,46.58
2022-08-18T19:40:30.428Z,46.70
2022-08-18T19:43:26.514Z,46.31
2022-08-18T19:46:01.634Z,46.40
2022-08-18T19:48:43.462Z,46.60
2022-08-18T19:51:14.076Z,46.29
2022-08-18T19:53:55.827Z,46.30
2022-08-18T19:56:54.188Z,46.52
2022-08-18T19:59:50.700Z,46.35
2022-08-18T20:02:25.811Z,46.34
2022-08-18T20:04:57.293Z,46.62
2022-08-18T20:07:29.678Z,46.33
2022-08-18T20:10:01.760Z,46.94
2022-08-18T20:12:48.141Z,46.00
2022-08-18T20:15:18.534Z,46.44
2022-08-18T20:17:57.251Z,47.04
2022-08-18T20:20:44.020Z,46.86
2022-08-18T20:23:34.832Z,47.75
2022-08-18T20:26:01.506Z,47.44
2022-08-18T20:28:37.280Z,47.43
2022-08-18T20:31:06.750Z,48.05
2022-08-18T20:33:43.307Z,48.57
2022-08-18T20:36:33.219Z,49.22
2022-08-18T20:39:00.423Z,49.20
2022-08-18T20:41:40.952Z,49.26
2022-08-18T20:44:29.423Z,49.41
2022-08-18T20:47:23.992Z,49.58
2022-08-18T20:50:15.387Z,50.64
2022-08-18T20:53:07.748Z,50.48
2022-08-18T20:55:56.571Z,50.92
2022-08-18T20:58:27.346Z,51.22
2022-08-18T21:00:57.367Z,52.60
2022-08-18T21:03:38.914Z,52.52
2022-08-18T21:06:06.048Z,53.06
2022-08-18T21:08:35.850Z,52.71
2022-08-18T21:11:19.035Z,52.49
2022-08-18T21:13:45.559Z,53.90
2022-08-18T21:16:40.261Z,53.28
2022-08-18T21:19:25.414Z,53.32
2022-08-18T21:22:02.606Z,53.26
2022-08-18T21:24:35.784Z,53.74
2022-08-18T21:27:35.304Z,53.50
2022-08-18T21:30:15.388Z,53.30
2022-08-18T21:32:44.549Z,52.80
2022-08-18T21:35:26.625Z,53.73
2022-08-18T21:38:01.110Z,53.67
2022-08-18T21:40:41.175Z,53.78
2022-08-18T21:43:09.407Z,53.71
2022-08-18T21:45:53.026Z,53.48
2022-08-18T21:48:22.466Z,52.68
2022-08-18T21:50:51.573Z,52.79
2022-08-18T21:53:29.878Z,54.07
2022-08-18T21:55:57.467Z,54.41
2022-08-18T21:58:40.181Z,54.54
2022-08-18T22:01:10.743Z,53.90
2022-08-18T22:03:48.882Z,53.51
2022-08-18T22:06:24.149Z,53.17
2022-08-18T22:08:57.719Z,52.67
2022-08-18T22:12:01.380Z,52.66
2022-08-18T22:14:54.545Z,54.17
2022-08-18T22:17:34.928Z,53.92
2022-08-18T22:20:35.599Z,53.50
2022-08-18T22:23:23.735Z,53.76
2022-08-18T22:25:50.978Z,53.45
2022-08-18T22:28:24.300Z,54.19
2022-08-18T22:30:53.945Z,54.45
2022-08-18T22:33:20.715Z,53.92
2022-08-18T22:35:56.416Z,53.60
2022-08-18T22:38:25.061Z,52.70
2022-08-18T22:40:52.207Z,52.63
2022-08-18T22:43:18.747Z,53.22
2022-08-18T22:45:45.556Z,54.25
2022-08-18T22:48:12.093Z,55.03
2022-08-18T22:50:38.631Z,56.38
2022-08-18T22:53:05.497Z,55.87
2022-08-18T22:55:32.148Z,56.10
2022-08-18T22:57:58.699Z,55.33
2022-08-18T23:00:27.476Z,56.01
2022-08-18T23:02:55.198Z,56.33
2022-08-18T23:05:22.284Z,56.37
2022-08-18T23:07:49.809Z,56.28
2022-08-18T23:10:16.681Z,57.63
2022-08-18T23:12:44.634Z,58.33
2022-08-18T23:15:11.744Z,57.81
2022-08-18T23:17:40.656Z,57.94
2022-08-18T23:20:12.009Z,58.29
2022-08-18T23:22:42.255Z,57.75
2022-08-18T23:25:09.523Z,58.06
2022-08-18T23:27:36.660Z,58.86
2022-08-18T23:30:05.007Z,57.89
2022-08-18T23:32:31.960Z,58.19
2022-08-18T23:34:59.372Z,57.99
2022-08-18T23:37:25.954Z,58.88
2022-08-18T23:39:52.550Z,56.80
2022-08-18T23:42:19.155Z,56.45
2022-08-18T23:44:49.586Z,57.99
2022-08-18T23:47:18.507Z,57.31
2022-08-18T23:49:45.108Z,56.81
2022-08-18T23:52:11.606Z,57.01
2022-08-18T23:54:39.062Z,57.07
2022-08-18T23:57:05.804Z,57.36
2022-08-18T23:59:32.424Z,57.42
